Time;durP1;ratioP1;P1;durP2;ratioP2;P2;SDS_P1;SDS_P2;PMS_P1;PMS_P2;Temp;Humidity;BMP_temperature;BMP_pressure;BME280_temperature;BME280_humidity;BME280_pressure;Samples;Min_cycle;Max_cycle;Signal;HPM_P1;HPM_P2
2023/06/28 00:00:23;;;;;;;8.40;2.97;;;;;;;;;;4882424;29;20032;-60
2023/06/28 00:02:49;;;;;;;12.43;3.58;;;;;;;;;;4882538;29;20044;-60
2023/06/28 00:05:15;;;;;;;12.18;3.20;;;;;;;;;;4881225;29;20059;-61
2023/06/28 00:07:41;;;;;;;13.73;3.20;;;;;;;;;;4881364;29;20063;-60
2023/06/28 00:10:07;;;;;;;9.65;3.25;;;;;;;;;;4881945;29;20067;-60
2023/06/28 00:12:34;;;;;;;5.68;2.65;;;;;;;;;;4881117;29;20046;-61
2023/06/28 00:15:01;;;;;;;8.00;3.00;;;;;;;;;;4879567;29;20075;-61
2023/06/28 00:17:30;;;;;;;8.23;2.95;;;;;;;;;;4880757;29;20178;-61
2023/06/28 00:19:56;;;;;;;12.80;3.70;;;;;;;;;;4882920;29;20048;-61
2023/06/28 00:22:31;;;;;;;9.07;2.85;;;;;;;;;;4886453;29;20032;-60
2023/06/28 00:24:59;;;;;;;8.40;3.30;;;;;;;;;;4886617;29;20040;-61
2023/06/28 00:27:25;;;;;;;9.52;3.72;;;;;;;;;;4885327;29;20033;-60
2023/06/28 00:29:51;;;;;;;9.30;3.40;;;;;;;;;;4885225;29;20060;-61
2023/06/28 00:32:17;;;;;;;7.78;2.58;;;;;;;;;;4885522;29;20064;-60
2023/06/28 00:34:44;;;;;;;6.68;2.50;;;;;;;;;;4886105;29;20036;-61
2023/06/28 00:37:10;;;;;;;12.23;3.30;;;;;;;;;;4884958;29;20415;-60
2023/06/28 00:39:36;;;;;;;10.75;3.28;;;;;;;;;;4886024;29;20073;-60
2023/06/28 00:42:02;;;;;;;10.68;3.88;;;;;;;;;;4885205;29;20043;-61
2023/06/28 00:44:28;;;;;;;7.28;2.70;;;;;;;;;;4886052;29;20028;-60
2023/06/28 00:46:55;;;;;;;10.50;3.28;;;;;;;;;;4885953;29;20032;-61
2023/06/28 00:49:21;;;;;;;10.18;3.55;;;;;;;;;;4886438;29;20033;-61
2023/06/28 00:51:48;;;;;;;7.68;3.17;;;;;;;;;;4887371;29;20163;-61
2023/06/28 00:54:14;;;;;;;8.30;3.08;;;;;;;;;;4886522;29;20086;-60
2023/06/28 00:56:40;;;;;;;8.57;3.45;;;;;;;;;;4887109;29;20142;-60
2023/06/28 00:59:06;;;;;;;10.80;2.97;;;;;;;;;;4885782;29;20056;-61
2023/06/28 01:01:34;;;;;;;8.68;3.60;;;;;;;;;;4885785;29;20032;-60
2023/06/28 01:04:02;;;;;;;7.68;3.53;;;;;;;;;;4885828;29;20711;-60
2023/06/28 01:06:31;;;;;;;9.18;4.10;;;;;;;;;;4885503;29;20123;-60
2023/06/28 01:08:58;;;;;;;8.57;3.15;;;;;;;;;;4886676;29;20044;-60
2023/06/28 01:11:24;;;;;;;9.05;3.38;;;;;;;;;;4885864;29;20055;-60
2023/06/28 01:13:51;;;;;;;10.15;3.58;;;;;;;;;;4886278;29;20064;-60
2023/06/28 01:16:17;;;;;;;9.10;3.15;;;;;;;;;;4886440;29;20041;-60
2023/06/28 01:18:43;;;;;;;9.18;3.50;;;;;;;;;;4885133;29;20985;-60
2023/06/28 01:21:11;;;;;;;10.20;3.58;;;;;;;;;;4886421;29;20099;-60
2023/06/28 01:23:37;;;;;;;8.93;3.08;;;;;;;;;;4886369;29;20082;-60
2023/06/28 01:26:03;;;;;;;11.90;4.60;;;;;;;;;;4885901;29;20040;-60
2023/06/28 01:28:33;;;;;;;10.60;3.72;;;;;;;;;;4885676;29;20412;-60
2023/06/28 01:30:59;;;;;;;7.40;3.15;;;;;;;;;;4886275;29;20654;-60
2023/06/28 01:33:26;;;;;;;9.73;3.58;;;;;;;;;;4885750;29;20438;-60
2023/06/28 01:35:53;;;;;;;9.70;3.58;;;;;;;;;;4885922;29;20630;-61
2023/06/28 01:38:19;;;;;;;13.73;4.43;;;;;;;;;;4885506;29;20672;-60
2023/06/28 01:40:46;;;;;;;10.45;4.00;;;;;;;;;;4886461;29;20421;-60
2023/06/28 01:43:12;;;;;;;9.73;3.97;;;;;;;;;;4886101;29;20883;-60
2023/06/28 01:45:38;;;;;;;11.20;4.20;;;;;;;;;;4886430;29;20051;-60
2023/06/28 01:48:04;;;;;;;9.52;3.90;;;;;;;;;;4886186;29;20114;-60
2023/06/28 01:50:30;;;;;;;9.32;3.72;;;;;;;;;;4885347;29;20032;-61
2023/06/28 01:52:58;;;;;;;11.77;4.15;;;;;;;;;;4885562;29;20040;-60
2023/06/28 01:55:24;;;;;;;7.97;3.78;;;;;;;;;;4884519;29;20127;-60
2023/06/28 01:57:50;;;;;;;10.00;3.90;;;;;;;;;;4884168;29;20084;-60
2023/06/28 02:00:16;;;;;;;11.45;4.55;;;;;;;;;;4885794;29;20040;-60
2023/06/28 02:02:42;;;;;;;8.48;4.13;;;;;;;;;;4884856;29;20051;-60
2023/06/28 02:05:09;;;;;;;8.13;3.72;;;;;;;;;;4885014;29;20092;-60
2023/06/28 02:07:35;;;;;;;9.95;4.03;;;;;;;;;;4885386;29;20037;-60
2023/06/28 02:10:01;;;;;;;9.77;3.72;;;;;;;;;;4885576;29;20039;-60
2023/06/28 02:12:27;;;;;;;9.00;4.32;;;;;;;;;;4884268;29;20044;-60
2023/06/28 02:14:53;;;;;;;9.40;3.70;;;;;;;;;;4885804;29;20063;-60
2023/06/28 02:17:20;;;;;;;10.25;4.07;;;;;;;;;;4884696;29;20040;-60
2023/06/28 02:19:50;;;;;;;12.60;4.13;;;;;;;;;;4884858;29;20039;-60
2023/06/28 02:22:16;;;;;;;11.25;4.10;;;;;;;;;;4885826;29;20035;-60
2023/06/28 02:24:43;;;;;;;11.10;4.40;;;;;;;;;;4885082;29;20069;-60
2023/06/28 02:27:09;;;;;;;7.80;3.50;;;;;;;;;;4885282;29;21011;-60
2023/06/28 02:29:36;;;;;;;11.95;3.97;;;;;;;;;;4884606;29;20024;-60
2023/06/28 02:32:02;;;;;;;10.82;4.95;;;;;;;;;;4885587;29;20037;-61
2023/06/28 02:34:28;;;;;;;13.82;4.32;;;;;;;;;;4887357;29;20036;-60
2023/06/28 02:36:54;;;;;;;15.95;3.90;;;;;;;;;;4889312;29;20642;-60
2023/06/28 02:39:21;;;;;;;9.13;3.88;;;;;;;;;;4888506;29;20892;-60
2023/06/28 02:41:47;;;;;;;10.07;4.20;;;;;;;;;;4888945;29;20701;-60
2023/06/28 02:44:13;;;;;;;7.95;4.38;;;;;;;;;;4889313;29;20036;-60
2023/06/28 02:46:39;;;;;;;8.02;4.18;;;;;;;;;;4888167;29;20147;-60
2023/06/28 02:49:05;;;;;;;12.32;4.70;;;;;;;;;;4889393;29;20055;-60
2023/06/28 02:51:31;;;;;;;11.23;4.53;;;;;;;;;;4888609;29;20055;-60
2023/06/28 02:53:58;;;;;;;10.82;4.13;;;;;;;;;;4888629;29;20759;-60
2023/06/28 02:56:25;;;;;;;11.40;4.82;;;;;;;;;;4871864;29;20036;-60
2023/06/28 02:58:51;;;;;;;8.25;4.00;;;;;;;;;;4888058;29;20139;-60
2023/06/28 03:01:17;;;;;;;8.60;4.22;;;;;;;;;;4886708;29;20040;-60
2023/06/28 03:03:44;;;;;;;13.20;4.32;;;;;;;;;;4888545;29;20047;-60
2023/06/28 03:06:10;;;;;;;10.48;4.68;;;;;;;;;;4888423;29;20036;-60
2023/06/28 03:08:36;;;;;;;9.70;4.40;;;;;;;;;;4888580;29;21025;-60
2023/06/28 03:11:02;;;;;;;9.30;4.30;;;;;;;;;;4888317;29;20036;-61
2023/06/28 03:13:28;;;;;;;11.88;4.78;;;;;;;;;;4888606;29;20036;-60
2023/06/28 03:15:54;;;;;;;12.25;5.05;;;;;;;;;;4888587;29;20134;-60
2023/06/28 03:18:20;;;;;;;7.65;4.30;;;;;;;;;;4887958;29;20036;-60
2023/06/28 03:20:46;;;;;;;8.18;4.15;;;;;;;;;;4888435;29;21766;-60
2023/06/28 03:23:12;;;;;;;7.85;3.47;;;;;;;;;;4888487;29;20282;-60
2023/06/28 03:25:38;;;;;;;7.38;3.58;;;;;;;;;;4888512;29;20058;-60
2023/06/28 03:28:04;;;;;;;10.65;4.13;;;;;;;;;;4888242;29;20760;-60
2023/06/28 03:30:31;;;;;;;7.90;3.72;;;;;;;;;;4888163;29;20040;-60
2023/06/28 03:32:57;;;;;;;7.60;3.05;;;;;;;;;;4887243;29;20069;-60
2023/06/28 03:35:23;;;;;;;10.90;3.85;;;;;;;;;;4888541;29;20094;-61
2023/06/28 03:37:49;;;;;;;6.78;3.00;;;;;;;;;;4887390;29;20060;-61
2023/06/28 03:40:16;;;;;;;12.13;2.95;;;;;;;;;;4887949;29;20040;-60
2023/06/28 03:42:42;;;;;;;9.48;2.92;;;;;;;;;;4887441;29;21946;-60
2023/06/28 03:45:08;;;;;;;8.20;3.00;;;;;;;;;;4886640;29;21225;-60
2023/06/28 03:47:34;;;;;;;7.30;3.40;;;;;;;;;;4887292;29;20028;-60
2023/06/28 03:50:00;;;;;;;7.85;2.90;;;;;;;;;;4886897;29;20454;-61
2023/06/28 03:52:26;;;;;;;7.47;2.72;;;;;;;;;;4887404;29;21758;-60
2023/06/28 03:54:53;;;;;;;7.50;2.83;;;;;;;;;;4888008;29;21159;-60
2023/06/28 03:57:21;;;;;;;7.18;3.20;;;;;;;;;;4887708;29;20035;-60
2023/06/28 03:59:47;;;;;;;6.85;2.67;;;;;;;;;;4887728;29;20032;-60
2023/06/28 04:02:13;;;;;;;7.65;2.50;;;;;;;;;;4887253;29;21014;-60
2023/06/28 04:04:39;;;;;;;6.80;2.40;;;;;;;;;;4887567;29;20036;-60
2023/06/28 04:07:05;;;;;;;8.00;2.70;;;;;;;;;;4886005;29;22292;-60
2023/06/28 04:09:32;;;;;;;8.80;3.22;;;;;;;;;;4887807;29;20437;-61
2023/06/28 04:11:58;;;;;;;8.30;2.53;;;;;;;;;;4887614;29;20028;-60
2023/06/28 04:14:24;;;;;;;8.43;2.50;;;;;;;;;;4887667;29;20052;-60
2023/06/28 04:16:53;;;;;;;3.97;1.80;;;;;;;;;;4887993;29;20063;-61
2023/06/28 04:19:19;;;;;;;5.18;2.00;;;;;;;;;;4887807;29;20384;-60
2023/06/28 04:21:45;;;;;;;6.75;2.33;;;;;;;;;;4887031;29;20036;-60
2023/06/28 04:24:11;;;;;;;6.15;2.10;;;;;;;;;;4887663;29;20036;-60
2023/06/28 04:26:37;;;;;;;5.28;2.10;;;;;;;;;;4887394;29;20084;-60
2023/06/28 04:29:03;;;;;;;7.47;3.08;;;;;;;;;;4887655;29;20036;-60
2023/06/28 04:31:29;;;;;;;6.70;2.80;;;;;;;;;;4886916;29;20373;-61
2023/06/28 04:33:56;;;;;;;8.73;2.80;;;;;;;;;;4887438;29;20040;-61
2023/06/28 04:36:22;;;;;;;6.55;2.78;;;;;;;;;;4886164;29;20032;-60
2023/06/28 04:38:52;;;;;;;6.13;2.67;;;;;;;;;;4887116;29;20190;-61
2023/06/28 04:41:27;;;;;;;6.90;3.05;;;;;;;;;;4886519;29;20491;-61
2023/06/28 04:43:58;;;;;;;8.10;3.42;;;;;;;;;;4886505;29;21660;-61
2023/06/28 04:46:27;;;;;;;7.38;3.08;;;;;;;;;;4887254;29;20487;-61
2023/06/28 04:48:54;;;;;;;6.88;3.28;;;;;;;;;;4886153;29;20127;-61
2023/06/28 04:51:20;;;;;;;7.10;3.20;;;;;;;;;;4886982;29;20143;-61
2023/06/28 04:53:47;;;;;;;7.68;3.58;;;;;;;;;;4885460;29;20044;-61
2023/06/28 04:56:14;;;;;;;7.10;3.47;;;;;;;;;;4887247;29;20071;-61
2023/06/28 04:58:40;;;;;;;6.72;3.20;;;;;;;;;;4886004;29;20099;-61
2023/06/28 05:01:07;;;;;;;7.78;3.28;;;;;;;;;;4886293;29;20048;-61
2023/06/28 05:03:34;;;;;;;12.63;3.80;;;;;;;;;;4885523;29;20163;-61
2023/06/28 05:06:02;;;;;;;7.28;4.07;;;;;;;;;;4886536;29;20038;-61
2023/06/28 05:08:28;;;;;;;8.82;3.60;;;;;;;;;;4885685;29;20044;-61
2023/06/28 05:10:54;;;;;;;8.13;3.80;;;;;;;;;;4884663;29;20056;-61
2023/06/28 05:13:22;;;;;;;7.45;3.50;;;;;;;;;;4886713;29;21387;-60
2023/06/28 05:15:48;;;;;;;7.97;3.38;;;;;;;;;;4885985;29;20051;-61
2023/06/28 05:18:14;;;;;;;11.52;4.25;;;;;;;;;;4887078;29;20040;-61
2023/06/28 05:20:40;;;;;;;6.57;3.75;;;;;;;;;;4883997;29;20059;-61
2023/06/28 05:23:11;;;;;;;9.82;4.22;;;;;;;;;;4884715;29;20463;-61
2023/06/28 05:25:38;;;;;;;7.85;3.50;;;;;;;;;;4885508;29;20114;-61
2023/06/28 05:28:05;;;;;;;8.40;3.83;;;;;;;;;;4886084;29;20036;-61
2023/06/28 05:30:31;;;;;;;7.65;3.42;;;;;;;;;;4885291;29;20036;-61
2023/06/28 05:32:58;;;;;;;8.73;3.22;;;;;;;;;;4886040;29;20039;-60
2023/06/28 05:35:24;;;;;;;7.60;3.20;;;;;;;;;;4885717;29;20896;-61
2023/06/28 05:37:51;;;;;;;8.70;3.42;;;;;;;;;;4883257;29;20036;-61
2023/06/28 05:40:17;;;;;;;6.65;3.63;;;;;;;;;;4884672;29;20044;-61
2023/06/28 05:42:43;;;;;;;10.90;3.67;;;;;;;;;;4869865;29;20036;-61
2023/06/28 05:45:09;;;;;;;8.65;3.75;;;;;;;;;;4885166;29;20036;-61
2023/06/28 05:47:35;;;;;;;7.50;3.40;;;;;;;;;;4885225;29;20686;-61
2023/06/28 05:50:01;;;;;;;6.43;3.40;;;;;;;;;;4885296;29;20063;-61
2023/06/28 05:52:27;;;;;;;7.38;3.78;;;;;;;;;;4885389;29;20059;-61
2023/06/28 05:54:53;;;;;;;7.97;3.53;;;;;;;;;;4885215;29;20028;-61
2023/06/28 05:57:19;;;;;;;6.72;3.45;;;;;;;;;;4868484;29;20403;-61
2023/06/28 05:59:45;;;;;;;7.40;3.28;;;;;;;;;;4884947;29;20032;-60
2023/06/28 06:02:11;;;;;;;6.90;3.08;;;;;;;;;;4885519;29;20047;-60
2023/06/28 06:04:38;;;;;;;5.13;3.22;;;;;;;;;;4885775;29;20044;-60
2023/06/28 06:07:04;;;;;;;8.23;3.65;;;;;;;;;;4885973;29;20047;-61
2023/06/28 06:09:30;;;;;;;9.88;3.83;;;;;;;;;;4887965;29;20492;-60
2023/06/28 06:11:56;;;;;;;8.43;4.05;;;;;;;;;;4890090;29;20124;-61
2023/06/28 06:14:23;;;;;;;13.93;4.28;;;;;;;;;;4888625;29;20174;-60
2023/06/28 06:16:49;;;;;;;9.93;3.83;;;;;;;;;;4888495;29;20032;-61
2023/06/28 06:19:15;;;;;;;9.35;3.50;;;;;;;;;;4888968;29;20083;-61
2023/06/28 06:21:41;;;;;;;12.00;4.25;;;;;;;;;;4875752;29;20092;-61
2023/06/28 06:24:07;;;;;;;8.15;3.80;;;;;;;;;;4890470;29;20055;-61
2023/06/28 06:26:36;;;;;;;9.15;3.63;;;;;;;;;;4890101;29;20040;-61
2023/06/28 06:29:03;;;;;;;9.20;4.30;;;;;;;;;;4890267;29;20051;-60
2023/06/28 06:31:29;;;;;;;9.18;4.40;;;;;;;;;;4889734;29;20032;-61
2023/06/28 06:34:00;;;;;;;8.63;4.03;;;;;;;;;;4889864;29;20032;-61
2023/06/28 06:36:26;;;;;;;9.63;4.30;;;;;;;;;;4889424;29;20052;-60
2023/06/28 06:38:52;;;;;;;9.80;4.30;;;;;;;;;;4890354;29;20032;-61
2023/06/28 06:41:18;;;;;;;8.55;4.68;;;;;;;;;;4889725;29;20043;-61
2023/06/28 06:43:44;;;;;;;12.90;5.50;;;;;;;;;;4889227;29;20139;-61
2023/06/28 06:46:10;;;;;;;12.95;5.28;;;;;;;;;;4888778;29;20068;-61
2023/06/28 06:48:37;;;;;;;11.02;5.07;;;;;;;;;;4889666;29;20051;-60
2023/06/28 06:51:05;;;;;;;9.25;4.78;;;;;;;;;;4889703;29;20087;-61
2023/06/28 06:53:31;;;;;;;11.75;6.07;;;;;;;;;;4889070;29;20115;-61
2023/06/28 06:55:57;;;;;;;10.77;5.07;;;;;;;;;;4885982;29;20041;-61
2023/06/28 06:58:23;;;;;;;12.32;6.18;;;;;;;;;;4885954;29;20084;-61
2023/06/28 07:00:51;;;;;;;10.52;5.40;;;;;;;;;;4887701;29;20115;-61
2023/06/28 07:03:17;;;;;;;7.88;4.95;;;;;;;;;;4887387;29;20048;-61
2023/06/28 07:05:44;;;;;;;10.68;5.28;;;;;;;;;;4887249;29;20123;-61
2023/06/28 07:08:10;;;;;;;11.85;5.25;;;;;;;;;;4888600;29;20043;-61
2023/06/28 07:10:36;;;;;;;9.77;5.22;;;;;;;;;;4887976;29;20032;-61
2023/06/28 07:13:02;;;;;;;9.40;5.35;;;;;;;;;;4888716;29;20045;-61
2023/06/28 07:15:28;;;;;;;15.52;5.97;;;;;;;;;;4886603;29;20056;-61
2023/06/28 07:17:54;;;;;;;14.30;5.68;;;;;;;;;;4887814;29;20044;-61
2023/06/28 07:20:21;;;;;;;10.57;5.78;;;;;;;;;;4888883;29;20048;-61
2023/06/28 07:22:47;;;;;;;11.57;5.90;;;;;;;;;;4888536;29;20037;-61
2023/06/28 07:25:14;;;;;;;14.00;6.55;;;;;;;;;;4888628;29;20046;-61
2023/06/28 07:27:40;;;;;;;12.35;6.22;;;;;;;;;;4888436;29;20095;-61
2023/06/28 07:30:08;;;;;;;14.52;6.88;;;;;;;;;;4888999;29;20048;-61
2023/06/28 07:32:34;;;;;;;13.25;6.05;;;;;;;;;;4889148;29;20116;-61
2023/06/28 07:35:00;;;;;;;12.23;6.22;;;;;;;;;;4888840;29;20028;-61
2023/06/28 07:37:26;;;;;;;11.85;5.72;;;;;;;;;;4887084;29;20037;-61
2023/06/28 07:39:52;;;;;;;11.00;6.28;;;;;;;;;;4888769;29;20115;-61
2023/06/28 07:42:23;;;;;;;15.95;6.93;;;;;;;;;;4888644;29;20043;-61
2023/06/28 07:44:49;;;;;;;11.32;6.00;;;;;;;;;;4888729;29;20127;-61
2023/06/28 07:47:15;;;;;;;13.93;6.35;;;;;;;;;;4889296;29;20384;-61
2023/06/28 07:49:41;;;;;;;12.82;6.75;;;;;;;;;;4888651;29;20028;-61
2023/06/28 07:52:09;;;;;;;11.93;6.68;;;;;;;;;;4888901;29;20040;-61
2023/06/28 07:54:35;;;;;;;13.55;6.82;;;;;;;;;;4888515;29;20118;-61
2023/06/28 07:57:02;;;;;;;13.68;6.32;;;;;;;;;;4888084;29;20404;-61
2023/06/28 07:59:28;;;;;;;11.68;5.85;;;;;;;;;;4888129;29;20248;-61
2023/06/28 08:01:54;;;;;;;12.27;5.97;;;;;;;;;;4888439;29;20047;-61
2023/06/28 08:04:20;;;;;;;13.10;6.10;;;;;;;;;;4888347;29;20522;-61
2023/06/28 08:06:46;;;;;;;12.35;6.72;;;;;;;;;;4888162;29;20048;-61
2023/06/28 08:09:12;;;;;;;11.57;6.10;;;;;;;;;;4888290;29;20135;-61
2023/06/28 08:11:39;;;;;;;14.50;6.00;;;;;;;;;;4887282;29;20043;-61
2023/06/28 08:14:05;;;;;;;11.65;5.53;;;;;;;;;;4887014;29;20145;-61
2023/06/28 08:16:31;;;;;;;9.27;5.40;;;;;;;;;;4888091;29;20040;-62
2023/06/28 08:18:57;;;;;;;12.43;6.40;;;;;;;;;;4888406;29;20043;-62
2023/06/28 08:21:23;;;;;;;12.00;6.40;;;;;;;;;;4886634;29;20128;-62
2023/06/28 08:23:49;;;;;;;10.27;5.38;;;;;;;;;;4886930;29;20519;-62
2023/06/28 08:26:15;;;;;;;13.73;6.45;;;;;;;;;;4887744;29;20044;-62
2023/06/28 08:28:42;;;;;;;11.02;6.32;;;;;;;;;;4888223;29;20043;-61
2023/06/28 08:31:08;;;;;;;13.32;5.80;;;;;;;;;;4887477;29;20036;-61
2023/06/28 08:33:34;;;;;;;11.48;5.90;;;;;;;;;;4886016;29;20036;-62
2023/06/28 08:36:00;;;;;;;12.07;6.57;;;;;;;;;;4887686;29;20036;-62
2023/06/28 08:38:26;;;;;;;12.55;6.45;;;;;;;;;;4887518;29;20166;-60
2023/06/28 08:40:52;;;;;;;10.55;6.05;;;;;;;;;;4887463;29;20082;-61
2023/06/28 08:43:19;;;;;;;13.63;6.97;;;;;;;;;;4887908;29;20036;-62
2023/06/28 08:45:45;;;;;;;12.05;7.03;;;;;;;;;;4887549;29;20024;-62
2023/06/28 08:48:13;;;;;;;11.68;7.00;;;;;;;;;;4887529;29;20047;-61
2023/06/28 08:50:40;;;;;;;8.35;5.47;;;;;;;;;;4887690;29;20116;-61
2023/06/28 08:53:10;;;;;;;10.57;6.22;;;;;;;;;;4887596;29;20083;-61
2023/06/28 08:55:40;;;;;;;12.00;6.75;;;;;;;;;;4887557;29;20167;-61
2023/06/28 08:58:07;;;;;;;10.05;6.30;;;;;;;;;;4887384;29;20440;-61
2023/06/28 09:00:33;;;;;;;14.10;6.82;;;;;;;;;;4887043;29;20036;-61
2023/06/28 09:02:59;;;;;;;11.07;6.88;;;;;;;;;;4887431;29;20043;-62
2023/06/28 09:05:25;;;;;;;11.95;6.97;;;;;;;;;;4886661;29;20040;-61
2023/06/28 09:07:52;;;;;;;13.48;7.75;;;;;;;;;;4887412;29;20271;-61
2023/06/28 09:10:18;;;;;;;33.42;10.13;;;;;;;;;;4886820;29;20031;-61
2023/06/28 09:12:44;;;;;;;12.27;7.07;;;;;;;;;;4887590;29;20028;-61
2023/06/28 09:15:11;;;;;;;13.95;7.50;;;;;;;;;;4887402;29;20131;-61
2023/06/28 09:17:37;;;;;;;12.43;7.47;;;;;;;;;;4871331;29;20084;-61
2023/06/28 09:20:17;;;;;;;12.88;7.57;;;;;;;;;;4887016;29;20073;-61
2023/06/28 09:22:43;;;;;;;13.82;7.90;;;;;;;;;;4886632;29;20692;-62
2023/06/28 09:25:09;;;;;;;14.80;8.27;;;;;;;;;;4887586;29;20059;-61
2023/06/28 09:27:35;;;;;;;13.75;9.23;;;;;;;;;;4887367;29;20036;-61
2023/06/28 09:30:01;;;;;;;12.52;7.18;;;;;;;;;;4886712;29;20040;-61
2023/06/28 09:32:43;;;;;;;15.57;8.30;;;;;;;;;;4887311;29;20032;-61
2023/06/28 09:35:10;;;;;;;13.13;8.43;;;;;;;;;;4885437;29;20032;-61
2023/06/28 09:37:38;;;;;;;13.88;8.60;;;;;;;;;;4886908;29;20043;-61
2023/06/28 09:40:06;;;;;;;14.93;8.48;;;;;;;;;;4886696;29;20036;-61
2023/06/28 09:42:32;;;;;;;16.13;9.20;;;;;;;;;;4886732;29;20070;-62
2023/06/28 09:44:58;;;;;;;16.48;9.13;;;;;;;;;;4886750;29;20082;-61
2023/06/28 09:47:33;;;;;;;14.32;8.50;;;;;;;;;;4885903;29;20075;-61
2023/06/28 09:50:02;;;;;;;14.05;8.18;;;;;;;;;;4871205;29;20123;-61
2023/06/28 09:52:28;;;;;;;13.10;9.55;;;;;;;;;;4885861;29;20036;-61
2023/06/28 09:54:57;;;;;;;14.75;8.45;;;;;;;;;;4886233;29;20373;-61
2023/06/28 09:57:24;;;;;;;15.32;9.55;;;;;;;;;;4885752;29;20032;-61
2023/06/28 09:59:52;;;;;;;18.08;9.93;;;;;;;;;;4886209;29;20043;-61
2023/06/28 10:02:21;;;;;;;16.55;9.25;;;;;;;;;;4885728;29;20032;-61
2023/06/28 10:04:47;;;;;;;15.98;9.50;;;;;;;;;;4886503;29;20092;-61
2023/06/28 10:07:13;;;;;;;15.65;9.13;;;;;;;;;;4884588;29;20491;-61
2023/06/28 10:09:40;;;;;;;12.95;8.55;;;;;;;;;;4886358;29;20642;-61
2023/06/28 10:12:09;;;;;;;16.63;9.70;;;;;;;;;;4883059;29;20111;-61
2023/06/28 10:14:38;;;;;;;16.50;10.48;;;;;;;;;;4885066;29;22155;-61
2023/06/28 10:17:05;;;;;;;13.95;9.30;;;;;;;;;;4887346;29;20507;-60
2023/06/28 10:19:31;;;;;;;14.02;9.45;;;;;;;;;;4886500;29;20048;-61
2023/06/28 10:21:57;;;;;;;15.25;9.57;;;;;;;;;;4887831;29;20530;-61
2023/06/28 10:24:24;;;;;;;15.70;9.20;;;;;;;;;;4887142;29;20032;-61
2023/06/28 10:26:50;;;;;;;16.58;10.35;;;;;;;;;;4887740;29;20146;-61
2023/06/28 10:29:17;;;;;;;16.17;9.57;;;;;;;;;;4887673;29;20051;-61
2023/06/28 10:31:43;;;;;;;12.50;9.13;;;;;;;;;;4887796;29;20074;-61
2023/06/28 10:34:09;;;;;;;13.75;9.10;;;;;;;;;;4887910;29;20072;-61
2023/06/28 10:36:35;;;;;;;12.73;9.50;;;;;;;;;;4887541;29;20040;-61
2023/06/28 10:39:03;;;;;;;14.35;9.05;;;;;;;;;;4887337;29;21023;-61
2023/06/28 10:41:29;;;;;;;11.50;8.90;;;;;;;;;;4887019;29;21200;-61
2023/06/28 10:44:07;;;;;;;13.63;8.40;;;;;;;;;;4887795;29;21876;-61
2023/06/28 10:46:33;;;;;;;14.13;8.88;;;;;;;;;;4887174;29;20044;-61
2023/06/28 10:49:00;;;;;;;13.10;9.30;;;;;;;;;;4887215;29;20044;-61
2023/06/28 10:51:27;;;;;;;13.18;8.82;;;;;;;;;;4870913;29;20044;-61
2023/06/28 10:53:56;;;;;;;13.15;9.35;;;;;;;;;;4885167;29;20745;-61
2023/06/28 10:56:22;;;;;;;14.77;9.85;;;;;;;;;;4888012;29;20032;-61
2023/06/28 10:58:54;;;;;;;11.73;8.15;;;;;;;;;;4889369;29;21653;-61
2023/06/28 11:01:35;;;;;;;14.33;9.50;;;;;;;;;;4889510;29;20036;-61
2023/06/28 11:04:18;;;;;;;13.40;9.60;;;;;;;;;;4889925;29;20044;-61
2023/06/28 11:06:44;;;;;;;17.25;10.05;;;;;;;;;;4889665;29;20044;-61
2023/06/28 11:09:19;;;;;;;13.25;9.55;;;;;;;;;;4890164;29;20036;-61
2023/06/28 11:11:56;;;;;;;14.98;10.02;;;;;;;;;;4889579;29;21786;-61
2023/06/28 11:14:22;;;;;;;14.38;9.95;;;;;;;;;;4889585;29;20028;-61
2023/06/28 11:16:49;;;;;;;14.02;9.98;;;;;;;;;;4886949;29;20036;-60
2023/06/28 11:19:18;;;;;;;14.35;10.77;;;;;;;;;;4887761;29;20403;-61
2023/06/28 11:21:48;;;;;;;13.95;9.82;;;;;;;;;;4888484;29;20475;-61
2023/06/28 11:24:14;;;;;;;16.20;10.88;;;;;;;;;;4888616;29;20028;-61
2023/06/28 11:26:42;;;;;;;12.45;9.70;;;;;;;;;;4888298;29;20629;-61
2023/06/28 11:29:18;;;;;;;15.18;10.57;;;;;;;;;;4888409;29;20036;-61
2023/06/28 11:31:48;;;;;;;15.48;10.88;;;;;;;;;;4887649;29;20048;-61
2023/06/28 11:34:15;;;;;;;14.05;10.57;;;;;;;;;;4888009;29;20044;-61
2023/06/28 11:36:43;;;;;;;15.98;10.27;;;;;;;;;;4887439;29;20027;-61
2023/06/28 11:39:10;;;;;;;15.75;11.48;;;;;;;;;;4887770;29;20040;-61
2023/06/28 11:41:36;;;;;;;14.95;11.32;;;;;;;;;;4887751;29;20103;-61
2023/06/28 11:44:07;;;;;;;13.02;11.48;;;;;;;;;;4887641;29;20059;-61
2023/06/28 11:46:34;;;;;;;16.98;11.50;;;;;;;;;;4885327;29;20047;-61
2023/06/28 11:49:00;;;;;;;16.33;12.05;;;;;;;;;;4887660;29;20598;-61
2023/06/28 11:51:26;;;;;;;18.27;12.40;;;;;;;;;;4887507;29;20119;-61
2023/06/28 11:53:56;;;;;;;18.50;12.95;;;;;;;;;;4887086;29;20171;-61
2023/06/28 11:56:34;;;;;;;16.73;12.77;;;;;;;;;;4887213;29;20029;-61
2023/06/28 11:59:12;;;;;;;15.75;11.95;;;;;;;;;;4887788;29;20115;-61
2023/06/28 12:01:38;;;;;;;18.70;13.18;;;;;;;;;;4887364;29;20072;-61
2023/06/28 12:04:12;;;;;;;15.20;12.07;;;;;;;;;;4886995;29;20033;-61
2023/06/28 12:06:41;;;;;;;16.67;13.68;;;;;;;;;;4885946;29;20040;-61
2023/06/28 12:09:27;;;;;;;17.65;13.43;;;;;;;;;;4887812;29;20520;-61
2023/06/28 12:11:59;;;;;;;18.40;14.20;;;;;;;;;;4884219;29;20036;-60
2023/06/28 12:14:30;;;;;;;19.10;14.18;;;;;;;;;;4888430;29;20028;-61
2023/06/28 12:16:57;;;;;;;18.13;14.35;;;;;;;;;;4886307;29;20120;-61
2023/06/28 12:19:27;;;;;;;17.27;13.40;;;;;;;;;;4889042;29;20040;-61
2023/06/28 12:21:53;;;;;;;18.30;12.73;;;;;;;;;;4888524;29;20055;-61
2023/06/28 12:24:27;;;;;;;17.25;13.27;;;;;;;;;;4889205;29;20040;-61
2023/06/28 12:26:54;;;;;;;17.55;13.25;;;;;;;;;;4889150;29;20075;-61
2023/06/28 12:29:20;;;;;;;19.33;13.35;;;;;;;;;;4886975;29;20062;-61
2023/06/28 12:31:52;;;;;;;17.58;13.07;;;;;;;;;;4888537;29;20079;-61
2023/06/28 12:34:26;;;;;;;16.35;11.98;;;;;;;;;;4889039;29;20032;-61
2023/06/28 12:36:55;;;;;;;20.52;13.77;;;;;;;;;;4888584;29;20373;-61
2023/06/28 12:39:26;;;;;;;15.75;12.20;;;;;;;;;;4886741;29;20043;-61
2023/06/28 12:42:01;;;;;;;17.65;12.82;;;;;;;;;;4887227;29;20491;-61
2023/06/28 12:44:28;;;;;;;16.42;13.30;;;;;;;;;;4885794;29;20142;-61
2023/06/28 12:46:54;;;;;;;18.13;14.65;;;;;;;;;;4887126;29;20040;-61
2023/06/28 12:49:21;;;;;;;16.58;13.68;;;;;;;;;;4887842;29;20140;-61
2023/06/28 12:51:47;;;;;;;20.50;15.52;;;;;;;;;;4887707;29;20664;-61
2023/06/28 12:54:14;;;;;;;22.17;16.23;;;;;;;;;;4888643;29;21779;-61
2023/06/28 12:56:40;;;;;;;19.77;14.60;;;;;;;;;;4887420;29;20040;-61
2023/06/28 12:59:06;;;;;;;23.40;16.02;;;;;;;;;;4884822;29;20119;-61
2023/06/28 13:01:33;;;;;;;20.65;16.08;;;;;;;;;;4885439;29;20189;-61
2023/06/28 13:03:59;;;;;;;22.42;16.67;;;;;;;;;;4885630;29;20067;-61
2023/06/28 13:06:25;;;;;;;20.60;16.77;;;;;;;;;;4881792;29;20043;-61
2023/06/28 13:08:52;;;;;;;19.75;15.30;;;;;;;;;;4884710;29;20033;-61
2023/06/28 13:11:18;;;;;;;22.77;18.10;;;;;;;;;;4886560;29;20032;-61
2023/06/28 13:13:45;;;;;;;22.52;17.15;;;;;;;;;;4886279;29;20040;-61
2023/06/28 13:16:11;;;;;;;22.67;16.75;;;;;;;;;;4885694;29;20047;-61
2023/06/28 13:18:37;;;;;;;22.73;16.75;;;;;;;;;;4885386;29;20047;-61
2023/06/28 13:21:03;;;;;;;24.58;18.17;;;;;;;;;;4885482;29;20618;-61
2023/06/28 13:23:29;;;;;;;24.38;18.45;;;;;;;;;;4885562;29;20044;-61
2023/06/28 13:25:58;;;;;;;22.73;18.27;;;;;;;;;;4884948;29;20032;-61
2023/06/28 13:28:24;;;;;;;24.83;19.52;;;;;;;;;;4885701;29;20854;-61
2023/06/28 13:30:50;;;;;;;22.67;17.92;;;;;;;;;;4885523;29;20644;-61
2023/06/28 13:33:16;;;;;;;22.42;17.27;;;;;;;;;;4884844;29;20036;-61
2023/06/28 13:35:42;;;;;;;24.17;19.00;;;;;;;;;;4881969;29;20099;-61
2023/06/28 13:38:08;;;;;;;29.40;21.05;;;;;;;;;;4884996;29;20044;-61
2023/06/28 13:40:34;;;;;;;26.55;19.15;;;;;;;;;;4884368;29;20036;-61
2023/06/28 13:43:00;;;;;;;25.95;19.38;;;;;;;;;;4884589;29;20040;-61
2023/06/28 13:45:26;;;;;;;23.77;19.02;;;;;;;;;;4884358;29;20144;-61
2023/06/28 13:47:52;;;;;;;25.27;19.73;;;;;;;;;;4885989;29;20032;-61
2023/06/28 13:50:18;;;;;;;24.13;20.48;;;;;;;;;;4884400;29;20036;-61
2023/06/28 13:52:44;;;;;;;23.33;18.63;;;;;;;;;;4885864;29;20035;-61
2023/06/28 13:55:10;;;;;;;27.13;20.20;;;;;;;;;;4885188;29;20037;-61
2023/06/28 13:57:36;;;;;;;27.95;20.55;;;;;;;;;;4885874;29;20462;-61
2023/06/28 14:00:04;;;;;;;27.00;21.40;;;;;;;;;;4885809;29;20036;-61
2023/06/28 14:02:30;;;;;;;28.80;20.92;;;;;;;;;;4885147;29;20047;-61
2023/06/28 14:04:56;;;;;;;27.25;21.10;;;;;;;;;;4884781;29;20036;-61
2023/06/28 14:07:22;;;;;;;26.83;21.50;;;;;;;;;;4884192;29;20115;-61
2023/06/28 14:09:48;;;;;;;26.00;21.05;;;;;;;;;;4884541;29;20036;-61
2023/06/28 14:12:14;;;;;;;26.50;22.17;;;;;;;;;;4884319;29;20040;-61
2023/06/28 14:14:41;;;;;;;28.40;23.17;;;;;;;;;;4885737;29;20036;-61
2023/06/28 14:17:07;;;;;;;28.90;22.55;;;;;;;;;;4868967;29;20036;-61
2023/06/28 14:19:33;;;;;;;28.98;22.60;;;;;;;;;;4884429;29;20035;-61
2023/06/28 14:21:59;;;;;;;31.27;22.45;;;;;;;;;;4882909;29;20037;-61
2023/06/28 14:24:25;;;;;;;28.83;22.90;;;;;;;;;;4883471;29;20131;-61
2023/06/28 14:26:52;;;;;;;30.80;23.55;;;;;;;;;;4883103;29;20051;-61
2023/06/28 14:29:19;;;;;;;34.53;24.50;;;;;;;;;;4882143;29;20031;-61